Time;durP1;ratioP1;P1;durP2;ratioP2;P2;SDS_P1;SDS_P2;PMS_P1;PMS_P2;Temp;Humidity;BMP_temperature;BMP_pressure;BME280_temperature;BME280_humidity;BME280_pressure;Samples;Min_cycle;Max_cycle;Signal;HPM_P1;HPM_P2
2022/04/11 00:02:16;;;;;;;1.10;0.70;;;;;;;8.65;62.53;101058.59;5083270;28;20434;-54
2022/04/11 00:04:44;;;;;;;1.38;0.50;;;;;;;8.66;61.97;101073.47;5084581;28;20507;-53
2022/04/11 00:07:12;;;;;;;0.60;0.50;;;;;;;8.63;62.65;101065.84;5084443;28;20445;-53
2022/04/11 00:09:39;;;;;;;1.30;0.60;;;;;;;8.40;63.02;101078.56;5084118;28;20430;-55
2022/04/11 00:12:06;;;;;;;0.57;0.40;;;;;;;8.00;62.77;101082.38;5084376;28;20424;-62
2022/04/11 00:14:35;;;;;;;1.35;0.65;;;;;;;8.04;61.92;101076.63;5087863;28;20410;-54
2022/04/11 00:17:02;;;;;;;1.70;0.50;;;;;;;7.96;62.08;101089.72;5083590;28;20499;-53
2022/04/11 00:19:29;;;;;;;0.40;0.40;;;;;;;7.82;62.31;101101.56;5084456;28;20425;-57
2022/04/11 00:21:57;;;;;;;0.57;0.40;;;;;;;7.83;61.96;101110.31;5084229;28;20410;-58
2022/04/11 00:24:24;;;;;;;1.30;0.40;;;;;;;7.92;62.44;101116.56;5084419;28;20410;-59
2022/04/11 00:26:51;;;;;;;0.65;0.40;;;;;;;8.32;61.50;101115.44;5084007;28;20906;-56
2022/04/11 00:29:18;;;;;;;0.40;0.40;;;;;;;8.08;61.28;101118.59;5083889;28;20792;-55
2022/04/11 00:31:46;;;;;;;4.38;2.33;;;;;;;7.69;62.91;101116.03;5084171;28;21334;-55
2022/04/11 00:34:13;;;;;;;1.73;0.90;;;;;;;7.60;63.10;101123.00;5083877;28;20442;-53
2022/04/11 00:36:40;;;;;;;0.85;0.50;;;;;;;7.76;61.69;101128.53;5084194;28;20444;-52
2022/04/11 00:39:08;;;;;;;0.38;0.38;;;;;;;7.83;61.62;101134.06;5083820;28;20920;-55
2022/04/11 00:41:38;;;;;;;0.47;0.40;;;;;;;7.72;61.84;101131.59;5070814;28;20407;-54
2022/04/11 00:44:06;;;;;;;0.50;0.30;;;;;;;7.69;61.25;101134.50;5070215;28;20406;-54
2022/04/11 00:46:33;;;;;;;0.40;0.40;;;;;;;7.58;60.56;101135.47;5070509;28;20426;-53
2022/04/11 00:49:00;;;;;;;0.30;0.30;;;;;;;7.93;60.15;101136.69;5070403;28;20462;-53
2022/04/11 00:51:27;;;;;;;0.33;0.30;;;;;;;8.00;59.73;101140.44;5070032;28;20498;-53
2022/04/11 00:53:57;;;;;;;0.20;0.20;;;;;;;7.90;59.18;101145.72;5070372;28;20425;-59
2022/04/11 00:56:28;;;;;;;0.60;0.40;;;;;;;8.09;59.20;101151.97;5070196;28;20411;-53
2022/04/11 00:58:56;;;;;;;0.70;0.30;;;;;;;8.14;58.91;101144.41;5069948;28;20415;-59
2022/04/11 01:01:23;;;;;;;0.90;0.30;;;;;;;8.21;58.60;101150.78;5070239;28;20411;-53
2022/04/11 01:03:51;;;;;;;0.80;0.53;;;;;;;8.23;58.68;101154.97;5069776;28;21051;-53
2022/04/11 01:06:18;;;;;;;1.17;0.50;;;;;;;8.16;58.65;101159.16;5069820;28;20450;-52
2022/04/11 01:08:45;;;;;;;0.63;0.50;;;;;;;8.19;58.60;101164.16;5069959;28;20427;-52
2022/04/11 01:11:12;;;;;;;0.52;0.52;;;;;;;8.04;59.20;101158.47;5069737;28;20421;-53
2022/04/11 01:13:41;;;;;;;1.00;0.55;;;;;;;8.14;58.94;101166.41;5069559;28;20800;-53
2022/04/11 01:18:38;;;;;;;0.40;0.40;;;;;;;8.16;58.90;101168.91;5075247;28;20412;-55
2022/04/11 01:21:07;;;;;;;0.90;0.50;;;;;;;8.44;58.21;101175.06;5064600;28;20447;-55
2022/04/11 01:23:36;;;;;;;0.93;0.52;;;;;;;8.31;58.12;101170.09;5062130;28;20408;-54
2022/04/11 01:26:03;;;;;;;0.95;0.55;;;;;;;8.13;58.87;101174.44;5048434;28;20506;-53
2022/04/11 01:28:54;;;;;;;0.90;0.60;;;;;;;8.31;58.73;101178.00;5113651;27;21136;-53
2022/04/11 01:31:20;;;;;;;0.40;0.40;;;;;;;8.08;59.28;101174.88;5106433;28;20421;-53
2022/04/11 01:33:57;;;;;;;0.73;0.57;;;;;;;8.01;59.42;101179.06;5106745;27;20451;-52
2022/04/11 01:36:24;;;;;;;0.43;0.40;;;;;;;7.99;59.78;101178.38;5107140;28;20417;-53
2022/04/11 01:38:51;;;;;;;1.00;0.50;;;;;;;8.03;59.36;101177.09;5106644;28;20408;-54
2022/04/11 01:41:20;;;;;;;0.63;0.50;;;;;;;8.21;59.05;101182.47;5106840;28;20416;-53
2022/04/11 01:44:30;;;;;;;0.57;0.43;;;;;;;8.13;58.74;101180.56;5078460;28;20917;-54
2022/04/11 01:46:57;;;;;;;0.40;0.40;;;;;;;8.07;59.05;101180.28;5066881;28;20459;-54
2022/04/11 01:49:24;;;;;;;0.50;0.40;;;;;;;8.28;58.91;101191.50;5066726;28;20447;-54
2022/04/11 01:52:36;;;;;;;1.00;0.40;;;;;;;8.26;59.11;101195.28;5104652;27;2131475;-53
2022/04/11 01:55:04;;;;;;;1.10;0.85;;;;;;;8.36;59.05;101193.44;5157052;27;20409;-54
2022/04/11 01:57:31;;;;;;;1.02;0.80;;;;;;;8.37;59.01;101195.09;5164092;27;20447;-54
2022/04/11 01:59:59;;;;;;;0.90;0.65;;;;;;;8.29;59.16;101195.00;5151579;27;20405;-54
2022/04/11 02:02:25;;;;;;;1.20;1.10;;;;;;;8.37;58.97;101187.16;5162186;27;20448;-56
2022/04/11 02:04:52;;;;;;;0.75;0.60;;;;;;;8.07;59.76;101193.50;5158793;27;20410;-54
2022/04/11 02:07:20;;;;;;;0.70;0.50;;;;;;;7.98;60.13;101201.31;5154503;27;20442;-54
2022/04/11 02:09:48;;;;;;;0.75;0.60;;;;;;;8.00;60.04;101201.97;5160369;27;20413;-53
2022/04/11 02:12:38;;;;;;;1.00;0.60;;;;;;;8.26;59.78;101201.38;5068013;28;20412;-52
2022/04/11 02:15:06;;;;;;;1.85;1.50;;;;;;;8.41;59.17;101205.25;5066414;28;20832;-54
2022/04/11 02:17:33;;;;;;;0.93;0.55;;;;;;;8.29;59.70;101206.38;5066738;28;20422;-52
2022/04/11 02:20:00;;;;;;;1.08;0.90;;;;;;;8.56;58.92;101202.16;5065793;28;20452;-54
2022/04/11 02:22:27;;;;;;;1.90;1.45;;;;;;;8.67;58.86;101206.44;5066670;28;20451;-51
2022/04/11 02:24:54;;;;;;;2.30;1.58;;;;;;;8.64;59.09;101212.81;5066489;28;20420;-53
2022/04/11 02:27:21;;;;;;;2.90;2.03;;;;;;;8.60;59.21;101209.63;5066585;28;20477;-54
2022/04/11 02:29:49;;;;;;;2.40;1.80;;;;;;;8.73;59.00;101203.19;5065337;28;20509;-53
2022/04/11 02:32:16;;;;;;;3.53;2.78;;;;;;;8.59;59.09;101215.09;5065583;28;20428;-53
2022/04/11 02:35:27;;;;;;;3.30;2.70;;;;;;;8.60;59.23;101220.22;5106812;27;20404;-53
2022/04/11 02:37:54;;;;;;;1.98;1.30;;;;;;;8.58;59.14;101205.50;5106566;28;20466;-56
2022/04/11 02:40:21;;;;;;;2.20;2.00;;;;;;;8.54;59.53;101214.69;5106903;28;20412;-54
2022/04/11 02:42:49;;;;;;;10.13;9.52;;;;;;;8.40;59.70;101211.50;5106783;28;20455;-56
2022/04/11 02:45:17;;;;;;;14.73;13.77;;;;;;;8.54;59.55;101220.81;5106762;28;20419;-54
2022/04/11 02:47:44;;;;;;;4.78;4.47;;;;;;;8.70;59.19;101206.16;5106664;28;20420;-54
2022/04/11 02:50:12;;;;;;;16.98;15.77;;;;;;;8.56;59.21;101221.47;5090936;28;20912;-56
2022/04/11 02:53:22;;;;;;;7.47;6.87;;;;;;;8.44;59.47;101220.00;5112488;27;20466;-53
2022/04/11 02:55:49;;;;;;;15.55;14.55;;;;;;;8.41;59.82;101230.84;5106537;28;20418;-54
2022/04/11 02:58:16;;;;;;;6.68;6.18;;;;;;;8.52;59.16;101228.03;5107265;28;20413;-54
2022/04/11 03:00:43;;;;;;;20.60;19.17;;;;;;;8.37;59.04;101226.78;5106664;28;20825;-54
2022/04/11 03:03:11;;;;;;;3.70;3.40;;;;;;;8.27;59.83;101228.63;5107050;28;20512;-54
2022/04/11 03:05:38;;;;;;;13.20;12.20;;;;;;;8.12;59.45;101233.50;5106795;28;20594;-53
2022/04/11 03:08:05;;;;;;;8.63;7.93;;;;;;;8.27;59.14;101226.81;5106492;28;20448;-54
2022/04/11 03:12:27;;;;;;;8.50;7.80;;;;;;;8.09;58.93;101239.09;5080036;28;20412;-54
2022/04/11 03:14:54;;;;;;;8.75;8.10;;;;;;;8.15;58.71;101233.22;5066306;28;20424;-53
2022/04/11 03:17:21;;;;;;;5.38;4.97;;;;;;;8.06;58.86;101245.47;5066713;28;20469;-53
2022/04/11 03:19:48;;;;;;;7.95;7.30;;;;;;;8.00;59.32;101238.13;5065988;28;20423;-54
2022/04/11 03:22:15;;;;;;;6.47;5.50;;;;;;;7.99;59.37;101250.47;5066335;28;20419;-54
2022/04/11 03:24:42;;;;;;;9.75;8.95;;;;;;;7.90;59.65;101242.56;5065116;28;21026;-54
2022/04/11 03:27:09;;;;;;;7.40;6.77;;;;;;;7.89;59.59;101243.56;5065410;28;20424;-53
2022/04/11 03:29:38;;;;;;;12.57;11.65;;;;;;;7.81;59.38;101250.38;5063525;28;20415;-56
2022/04/11 03:32:06;;;;;;;9.10;8.40;;;;;;;7.84;59.02;101251.88;5062331;28;20798;-56
2022/04/11 03:34:33;;;;;;;7.50;6.93;;;;;;;7.81;59.04;101250.38;5063364;28;20426;-53
2022/04/11 03:37:00;;;;;;;14.77;13.68;;;;;;;7.74;58.96;101258.94;5064251;28;21081;-53
2022/04/11 03:39:27;;;;;;;9.70;8.88;;;;;;;7.87;58.35;101251.59;5063042;28;20463;-54
2022/04/11 03:41:54;;;;;;;5.88;5.38;;;;;;;8.01;57.60;101256.47;5064920;28;20499;-54
2022/04/11 03:44:21;;;;;;;8.15;7.55;;;;;;;7.96;56.56;101255.19;5065295;28;20412;-54
2022/04/11 03:46:49;;;;;;;16.45;15.15;;;;;;;7.98;55.31;101264.66;5064616;28;21019;-54
2022/04/11 03:49:16;;;;;;;26.57;24.40;;;;;;;7.88;55.19;101269.09;5065111;28;20451;-53
2022/04/11 03:51:44;;;;;;;19.77;18.15;;;;;;;7.86;54.72;101268.41;5065242;28;20428;-54
2022/04/11 03:54:11;;;;;;;11.57;10.57;;;;;;;7.88;53.80;101261.19;5064790;28;20463;-53
2022/04/11 03:56:38;;;;;;;19.63;18.02;;;;;;;7.77;53.67;101270.06;5065416;28;20447;-53
2022/04/11 03:59:05;;;;;;;11.75;10.63;;;;;;;7.81;52.48;101276.75;5065581;28;20448;-53
2022/04/11 04:01:32;;;;;;;16.02;14.60;;;;;;;7.80;52.63;101276.88;5053150;28;21197;-54
2022/04/11 04:04:01;;;;;;;13.57;12.40;;;;;;;7.80;52.54;101274.25;5024790;28;20495;-54
2022/04/11 04:06:28;;;;;;;10.82;9.25;;;;;;;7.92;52.09;101278.41;5020203;28;20451;-55
2022/04/11 04:08:55;;;;;;;8.65;6.82;;;;;;;8.05;51.37;101283.44;5010736;28;20417;-55
2022/04/11 04:11:22;;;;;;;9.70;8.70;;;;;;;8.15;50.68;101286.88;5028437;28;20867;-54
2022/04/11 04:13:50;;;;;;;10.18;8.57;;;;;;;8.27;50.08;101292.03;5039223;28;20935;-53
2022/04/11 04:16:17;;;;;;;33.15;30.02;;;;;;;8.31;49.18;101288.94;5044216;28;20959;-54
2022/04/11 04:18:44;;;;;;;12.95;11.65;;;;;;;8.23;48.90;101286.19;5033633;28;20426;-54
2022/04/11 04:21:12;;;;;;;13.57;12.27;;;;;;;8.20;49.23;101289.09;5032183;28;20481;-54
2022/04/11 04:23:39;;;;;;;10.05;9.05;;;;;;;8.06;49.38;101297.44;5017914;28;20971;-55
2022/04/11 04:26:06;;;;;;;13.27;12.07;;;;;;;8.06;49.09;101292.16;5023732;28;20849;-53
2022/04/11 04:28:33;;;;;;;10.55;9.02;;;;;;;8.26;48.83;101296.47;5029903;28;20946;-53
2022/04/11 04:31:00;;;;;;;13.68;12.48;;;;;;;8.32;48.37;101298.56;5030368;28;20432;-53
2022/04/11 04:33:30;;;;;;;10.75;9.60;;;;;;;8.31;48.12;101303.97;5030013;28;21029;-52
2022/04/11 04:35:57;;;;;;;15.55;14.07;;;;;;;8.37;48.24;101311.31;5030020;28;20426;-53
2022/04/11 04:38:25;;;;;;;9.02;6.78;;;;;;;8.46;47.79;101315.78;5030364;28;20428;-53
2022/04/11 04:40:52;;;;;;;9.27;6.75;;;;;;;8.67;47.59;101312.97;5027051;28;20493;-55
2022/04/11 04:43:19;;;;;;;10.40;7.57;;;;;;;8.76;46.71;101316.59;5013619;28;20451;-54
2022/04/11 04:45:47;;;;;;;11.47;9.00;;;;;;;8.66;47.39;101319.25;5017473;28;20434;-54
2022/04/11 04:48:14;;;;;;;12.93;10.60;;;;;;;8.57;47.82;101325.38;5017561;28;20434;-54
2022/04/11 04:50:41;;;;;;;12.85;10.45;;;;;;;8.60;47.46;101328.56;5018529;28;20795;-54
2022/04/11 04:53:08;;;;;;;12.68;10.13;;;;;;;8.72;46.83;101334.53;5013476;28;20428;-54
2022/04/11 04:55:37;;;;;;;13.50;9.37;;;;;;;8.72;46.78;101344.28;5028759;28;20993;-53
2022/04/11 04:58:04;;;;;;;9.18;8.07;;;;;;;8.67;46.59;101341.22;5015910;28;21197;-52
2022/04/11 05:00:31;;;;;;;8.27;6.90;;;;;;;8.73;46.28;101338.84;5017160;28;20432;-53
2022/04/11 05:02:58;;;;;;;18.50;14.93;;;;;;;8.73;46.05;101340.66;5021114;28;21005;-54
2022/04/11 05:05:25;;;;;;;12.60;9.75;;;;;;;8.77;45.58;101348.16;5012604;28;20813;-53
2022/04/11 05:07:52;;;;;;;32.45;27.33;;;;;;;8.69;45.80;101347.19;5011683;28;20413;-53
2022/04/11 05:10:19;;;;;;;68.73;49.67;;;;;;;8.88;44.98;101348.97;5009648;28;20707;-57
2022/04/11 05:12:48;;;;;;;7.05;5.70;;;;;;;9.13;44.49;101350.97;5013956;28;20432;-58
2022/04/11 05:15:16;;;;;;;9.25;6.95;;;;;;;9.49;43.91;101350.25;5013378;28;20424;-55
2022/04/11 05:17:43;;;;;;;9.68;6.75;;;;;;;10.27;42.17;101352.41;5013499;28;20926;-59
2022/04/11 05:20:11;;;;;;;25.60;19.63;;;;;;;10.86;40.84;101360.69;5012629;28;20423;-55
2022/04/11 05:22:38;;;;;;;22.10;17.20;;;;;;;11.54;39.70;101346.59;5010146;28;20424;-53
2022/04/11 05:25:06;;;;;;;13.18;8.40;;;;;;;12.15;38.74;101351.72;5011278;28;20934;-54
2022/04/11 05:27:33;;;;;;;13.88;9.43;;;;;;;12.58;37.93;101360.38;5009898;28;20420;-54
2022/04/11 05:30:05;;;;;;;19.23;13.45;;;;;;;13.08;37.05;101355.81;5015744;28;20453;-54
2022/04/11 05:32:33;;;;;;;28.00;20.45;;;;;;;13.42;36.66;101358.22;5013333;28;20434;-55
2022/04/11 05:35:00;;;;;;;13.35;9.02;;;;;;;13.82;36.32;101353.69;5010075;28;20420;-55
2022/04/11 05:37:27;;;;;;;12.85;8.90;;;;;;;14.31;35.45;101355.19;5011328;28;20431;-56
2022/04/11 05:39:54;;;;;;;10.45;7.03;;;;;;;14.99;34.33;101365.94;5016442;28;20422;-56
2022/04/11 05:42:21;;;;;;;9.77;6.13;;;;;;;15.61;33.20;101360.22;5018149;28;20946;-54
2022/04/11 05:44:48;;;;;;;10.57;5.03;;;;;;;17.16;30.71;101364.09;5027765;28;20456;-55
2022/04/11 05:47:16;;;;;;;8.77;5.68;;;;;;;18.42;28.80;101356.63;5012640;28;20486;-56
2022/04/11 05:49:43;;;;;;;9.15;4.97;;;;;;;18.85;27.64;101362.44;5016945;28;20422;-55
2022/04/11 05:52:14;;;;;;;7.30;4.80;;;;;;;19.64;26.81;101357.00;5014649;28;20442;-54
2022/04/11 05:54:41;;;;;;;10.50;4.40;;;;;;;19.86;26.53;101361.06;5018366;28;20503;-54
2022/04/11 05:57:08;;;;;;;10.48;4.05;;;;;;;19.96;26.34;101343.63;5016878;28;20481;-57
2022/04/11 05:59:35;;;;;;;8.80;4.18;;;;;;;20.07;26.14;101350.97;5014964;28;20797;-56
2022/04/11 06:02:02;;;;;;;6.63;3.55;;;;;;;19.81;25.82;101354.69;5012262;28;20423;-55
2022/04/11 06:04:30;;;;;;;8.77;4.63;;;;;;;20.48;25.15;101344.25;5013532;28;20426;-56
2022/04/11 06:06:57;;;;;;;7.47;3.78;;;;;;;20.39;25.30;101354.47;5020879;28;20936;-55
2022/04/11 06:09:24;;;;;;;7.45;2.90;;;;;;;20.14;25.31;101357.16;5013786;28;20522;-53
2022/04/11 06:11:51;;;;;;;8.73;3.50;;;;;;;19.50;25.93;101353.56;5017301;28;20813;-57
2022/04/11 06:14:18;;;;;;;9.63;3.80;;;;;;;20.07;25.43;101347.47;5015118;28;20933;-56
2022/04/11 06:16:45;;;;;;;9.05;4.40;;;;;;;20.09;25.06;101345.38;5014969;28;20924;-55
2022/04/11 06:19:12;;;;;;;6.85;3.10;;;;;;;19.61;25.51;101350.19;5012115;28;20917;-55
2022/04/11 06:21:40;;;;;;;7.00;3.85;;;;;;;19.89;25.14;101345.53;5017131;28;20920;-54
2022/04/11 06:24:08;;;;;;;10.70;4.60;;;;;;;19.33;25.76;101357.75;5019287;28;20415;-56
2022/04/11 06:26:35;;;;;;;7.17;4.43;;;;;;;19.33;25.19;101353.19;5018799;28;20418;-54
2022/04/11 06:29:02;;;;;;;8.43;4.93;;;;;;;18.97;25.35;101357.22;5010656;28;20511;-55
2022/04/11 06:31:28;;;;;;;7.55;4.10;;;;;;;19.25;24.96;101359.66;5014639;28;20462;-56
2022/04/11 06:33:55;;;;;;;9.13;3.85;;;;;;;19.00;25.21;101367.56;5011333;28;20428;-56
2022/04/11 06:36:22;;;;;;;7.97;3.47;;;;;;;19.31;24.89;101366.03;5017467;28;20439;-54
2022/04/11 06:38:51;;;;;;;9.27;4.50;;;;;;;19.31;24.73;101355.28;5016197;28;20751;-56
2022/04/11 06:41:18;;;;;;;10.63;4.90;;;;;;;19.19;24.35;101365.84;5015566;28;20418;-55
2022/04/11 06:43:45;;;;;;;6.18;3.25;;;;;;;18.87;24.87;101360.34;5012461;28;20419;-54
2022/04/11 06:46:11;;;;;;;7.22;3.65;;;;;;;19.00;24.97;101372.13;5013054;28;20428;-54
2022/04/11 06:48:38;;;;;;;10.10;4.67;;;;;;;19.41;23.99;101365.56;5013974;28;20424;-55
2022/04/11 06:51:05;;;;;;;6.35;3.42;;;;;;;19.15;24.37;101366.50;4979800;28;20428;-54
2022/04/11 06:53:33;;;;;;;6.23;4.70;;;;;;;18.84;24.81;101363.47;5016512;28;20814;-56
2022/04/11 06:56:01;;;;;;;6.80;3.73;;;;;;;18.48;24.78;101366.56;5017849;28;20426;-55
2022/04/11 06:58:28;;;;;;;6.78;3.30;;;;;;;18.25;25.05;101366.94;5014104;28;20478;-56
2022/04/11 07:00:55;;;;;;;5.60;3.28;;;;;;;18.35;24.91;101370.06;5023689;28;20485;-54
2022/04/11 07:03:22;;;;;;;5.20;3.17;;;;;;;18.43;24.71;101379.75;5012725;28;20462;-54
2022/04/11 07:05:49;;;;;;;9.00;3.90;;;;;;;17.97;25.10;101365.25;5012590;28;20823;-57
2022/04/11 07:08:16;;;;;;;6.75;3.50;;;;;;;18.15;25.21;101375.41;5021125;28;20524;-54
2022/04/11 07:10:44;;;;;;;6.47;3.58;;;;;;;18.47;24.91;101381.00;5025160;28;20422;-55
2022/04/11 07:13:14;;;;;;;8.60;3.65;;;;;;;18.12;25.35;101378.50;5029507;28;20520;-55
2022/04/11 07:15:41;;;;;;;5.15;3.40;;;;;;;18.72;24.80;101378.50;5029529;28;20489;-55
2022/04/11 07:18:08;;;;;;;5.05;3.25;;;;;;;18.60;25.10;101389.06;5029897;28;20418;-56
2022/04/11 07:20:35;;;;;;;7.85;3.30;;;;;;;20.27;23.27;101388.53;5029456;28;20424;-56
2022/04/11 07:23:02;;;;;;;4.68;2.85;;;;;;;22.42;20.21;101388.66;5029180;28;20406;-57
2022/04/11 07:25:29;;;;;;;6.60;2.80;;;;;;;24.12;19.14;101389.56;5028631;28;20959;-55
2022/04/11 07:27:56;;;;;;;6.47;2.80;;;;;;;25.32;17.29;101373.78;5029436;28;20414;-56
2022/04/11 07:30:25;;;;;;;6.57;2.53;;;;;;;26.69;15.93;101380.81;5029093;28;20418;-56
2022/04/11 07:32:52;;;;;;;7.22;3.58;;;;;;;27.26;15.13;101379.25;5029054;28;21013;-55
2022/04/11 07:35:19;;;;;;;3.92;2.40;;;;;;;28.13;14.52;101378.66;5029171;28;20994;-57
2022/04/11 07:37:46;;;;;;;5.72;2.83;;;;;;;27.60;15.09;101373.38;5029431;28;20484;-56
2022/04/11 07:40:13;;;;;;;5.18;2.58;;;;;;;28.59;14.05;101380.56;5028848;28;20953;-56
2022/04/11 07:42:40;;;;;;;5.55;2.70;;;;;;;28.62;14.07;101393.66;5029041;28;20418;-56
2022/04/11 07:45:08;;;;;;;4.80;2.63;;;;;;;28.15;14.22;101383.84;5029363;28;20838;-56
2022/04/11 07:47:36;;;;;;;4.37;2.30;;;;;;;26.06;15.31;101375.13;5028999;28;20425;-56
2022/04/11 07:50:04;;;;;;;5.13;2.63;;;;;;;22.65;18.65;101384.31;5029015;28;20421;-57
2022/04/11 07:52:31;;;;;;;6.28;2.60;;;;;;;21.70;20.15;101396.72;5028909;28;20496;-56
2022/04/11 07:54:58;;;;;;;4.72;2.65;;;;;;;20.50;21.69;101390.63;5028980;28;20492;-56
2022/04/11 07:57:25;;;;;;;4.85;2.60;;;;;;;19.08;22.89;101398.75;5029964;28;20800;-56
2022/04/11 07:59:52;;;;;;;4.57;2.70;;;;;;;18.89;23.80;101395.91;5032717;28;20421;-56
2022/04/11 08:02:25;;;;;;;6.18;2.70;;;;;;;19.04;22.92;101410.97;5033036;28;20418;-58
2022/04/11 08:04:53;;;;;;;4.93;2.40;;;;;;;17.96;24.14;101399.28;5032467;28;20499;-56
2022/04/11 08:07:21;;;;;;;5.50;2.83;;;;;;;17.65;23.82;101404.31;5032560;28;20928;-56
2022/04/11 08:09:50;;;;;;;5.55;2.78;;;;;;;16.97;24.55;101408.47;5032733;28;20456;-56
2022/04/11 08:12:18;;;;;;;6.78;3.60;;;;;;;16.53;25.21;101414.03;5032194;28;20438;-53
2022/04/11 08:14:45;;;;;;;4.30;2.87;;;;;;;16.42;25.61;101410.88;5032656;28;20511;-53
2022/04/11 08:17:12;;;;;;;6.50;3.00;;;;;;;16.19;25.87;101416.41;5032561;28;20788;-53
2022/04/11 08:19:39;;;;;;;7.88;2.97;;;;;;;16.48;25.59;101417.31;5032286;28;20446;-53
2022/04/11 08:22:08;;;;;;;6.53;2.65;;;;;;;16.39;25.52;101413.09;5032737;28;20446;-53
2022/04/11 08:24:35;;;;;;;6.82;3.35;;;;;;;16.66;26.21;101411.50;5032533;28;20421;-53
2022/04/11 08:27:02;;;;;;;7.25;3.83;;;;;;;16.81;25.70;101414.91;5032359;28;20410;-53
2022/04/11 08:29:29;;;;;;;6.10;2.80;;;;;;;16.14;26.06;101415.31;5032440;28;20414;-53
2022/04/11 08:31:56;;;;;;;4.38;2.55;;;;;;;16.14;26.58;101426.84;5032495;28;20411;-56
2022/04/11 08:34:23;;;;;;;6.10;2.90;;;;;;;16.06;26.51;101434.97;5032048;28;20410;-56
2022/04/11 08:36:50;;;;;;;6.15;3.10;;;;;;;16.18;26.67;101422.75;5032418;28;20414;-53
2022/04/11 08:39:18;;;;;;;7.43;4.20;;;;;;;16.30;26.83;101424.97;5032019;28;20921;-53
2022/04/11 08:41:45;;;;;;;6.85;3.67;;;;;;;15.98;27.40;101433.25;5031848;28;20857;-53
2022/04/11 08:44:13;;;;;;;6.03;2.85;;;;;;;15.94;27.33;101445.34;5031999;28;20446;-52
2022/04/11 08:46:41;;;;;;;4.70;2.38;;;;;;;16.09;26.92;101445.31;5031890;28;20788;-54
2022/04/11 08:49:08;;;;;;;4.57;2.63;;;;;;;16.31;27.11;101439.97;5031780;28;20422;-54
2022/04/11 08:51:36;;;;;;;5.07;2.85;;;;;;;16.33;26.74;101432.59;5031674;28;20410;-53
2022/04/11 08:54:05;;;;;;;3.58;2.20;;;;;;;16.03;26.54;101446.88;5031584;28;20807;-53
2022/04/11 08:56:34;;;;;;;4.28;2.50;;;;;;;16.18;26.56;101438.81;5031900;28;20549;-55
2022/04/11 08:59:02;;;;;;;4.90;2.63;;;;;;;16.29;25.93;101447.38;5031971;28;20782;-52
2022/04/11 09:01:30;;;;;;;8.07;2.90;;;;;;;16.62;25.63;101439.69;5031505;28;20515;-53
2022/04/11 09:03:57;;;;;;;4.97;2.70;;;;;;;16.50;25.73;101443.88;5031807;28;20433;-54
2022/04/11 09:06:24;;;;;;;5.00;2.10;;;;;;;16.28;26.00;101448.38;5031654;28;20500;-54
2022/04/11 09:08:52;;;;;;;4.23;2.50;;;;;;;16.49;26.36;101447.56;5031176;28;20418;-54
2022/04/11 09:11:30;;;;;;;5.43;2.65;;;;;;;16.30;25.58;101451.72;5030928;28;20492;-54
2022/04/11 09:14:00;;;;;;;3.85;2.45;;;;;;;16.43;25.11;101435.78;5031506;28;20519;-54
2022/04/11 09:16:27;;;;;;;4.28;2.42;;;;;;;16.38;24.75;101443.56;5031166;28;20816;-55
2022/04/11 09:18:56;;;;;;;6.63;2.15;;;;;;;16.49;25.31;101439.53;5031186;28;20421;-55
2022/04/11 09:21:26;;;;;;;5.93;2.30;;;;;;;16.56;25.27;101440.44;5031351;28;20414;-55
2022/04/11 09:24:16;;;;;;;3.58;2.25;;;;;;;16.17;25.42;101434.50;5031374;28;20489;-56
2022/04/11 09:26:44;;;;;;;4.70;2.10;;;;;;;15.81;26.60;101432.66;5031225;28;20419;-55
2022/04/11 09:29:12;;;;;;;4.20;2.20;;;;;;;16.10;26.33;101441.63;5030935;28;20418;-58
2022/04/11 09:31:39;;;;;;;4.80;2.20;;;;;;;16.53;25.88;101422.91;5031559;28;20410;-53
2022/04/11 09:34:17;;;;;;;5.03;2.90;;;;;;;16.52;25.90;101425.78;5030940;28;20794;-55
2022/04/11 09:36:46;;;;;;;5.00;2.50;;;;;;;16.66;25.93;101442.81;5030866;28;20940;-56
2022/04/11 09:39:14;;;;;;;5.88;2.20;;;;;;;16.13;25.70;101427.03;5030915;28;20469;-54
2022/04/11 09:41:45;;;;;;;5.72;2.10;;;;;;;16.29;26.32;101431.31;5030756;28;20414;-54
2022/04/11 09:44:27;;;;;;;5.93;2.22;;;;;;;16.58;26.40;101435.72;5030703;28;20501;-54
2022/04/11 09:46:55;;;;;;;5.85;2.20;;;;;;;16.61;25.57;101421.94;5030626;28;20410;-54
2022/04/11 09:49:23;;;;;;;3.78;2.28;;;;;;;16.82;25.20;101431.81;5030835;28;20499;-57
2022/04/11 09:52:11;;;;;;;5.18;2.25;;;;;;;16.78;25.98;101430.53;5030780;28;20839;-54
2022/04/11 09:54:40;;;;;;;3.67;2.10;;;;;;;16.80;25.36;101417.78;5031043;28;20426;-55
2022/04/11 09:57:08;;;;;;;4.63;2.53;;;;;;;16.58;25.52;101425.00;5029319;28;20420;-57
2022/04/11 09:59:37;;;;;;;5.80;2.63;;;;;;;16.66;24.98;101429.41;5030298;28;20930;-55
2022/04/11 10:02:06;;;;;;;4.03;2.00;;;;;;;16.69;25.21;101421.81;5030585;28;20445;-51
2022/04/11 10:04:34;;;;;;;3.35;2.10;;;;;;;16.77;24.70;101428.88;5030224;28;20450;-54
2022/04/11 10:07:02;;;;;;;4.85;2.10;;;;;;;16.78;24.56;101428.69;5030046;28;20468;-53
2022/04/11 10:09:29;;;;;;;4.15;2.10;;;;;;;17.12;25.14;101420.91;5030161;28;20421;-54
2022/04/11 10:11:56;;;;;;;3.67;2.30;;;;;;;17.02;24.74;101405.22;5030247;28;20507;-56
2022/04/11 10:14:26;;;;;;;3.05;2.20;;;;;;;16.70;24.89;101415.44;5029954;28;20932;-55
2022/04/11 10:16:57;;;;;;;3.85;2.00;;;;;;;16.78;25.24;101420.66;5030329;28;20418;-54
2022/04/11 10:19:29;;;;;;;3.97;2.03;;;;;;;16.59;24.88;101415.97;5030001;28;20437;-55
2022/04/11 10:22:00;;;;;;;5.28;2.00;;;;;;;16.39;25.29;101416.59;5029453;28;20422;-54
2022/04/11 10:24:35;;;;;;;3.25;2.10;;;;;;;16.52;25.42;101418.56;5029931;28;20445;-55
2022/04/11 10:27:20;;;;;;;3.92;2.10;;;;;;;16.71;24.87;101418.94;5029864;28;20410;-53
2022/04/11 10:29:50;;;;;;;5.07;2.47;;;;;;;16.69;24.57;101427.19;5029798;28;20497;-53
2022/04/11 10:32:20;;;;;;;5.50;2.15;;;;;;;16.62;24.68;101420.94;5030055;28;20457;-54
2022/04/11 10:35:00;;;;;;;5.18;2.40;;;;;;;16.52;24.94;101421.25;5030137;28;20398;-54
2022/04/11 10:37:29;;;;;;;5.30;2.55;;;;;;;16.48;25.31;101429.88;5029733;28;20505;-53
2022/04/11 10:40:26;;;;;;;2.95;1.90;;;;;;;16.60;25.08;101417.59;5029591;28;20920;-55
2022/04/11 10:43:15;;;;;;;4.03;2.00;;;;;;;16.57;25.14;101428.72;5026201;28;20441;-53
2022/04/11 10:45:44;;;;;;;3.63;1.92;;;;;;;16.28;25.31;101427.81;5029497;28;20942;-54
2022/04/11 10:48:13;;;;;;;4.27;1.97;;;;;;;16.47;25.24;101422.84;5029569;28;20425;-54
2022/04/11 10:50:42;;;;;;;3.67;2.00;;;;;;;16.75;24.77;101415.69;5029815;28;20424;-53
2022/04/11 10:53:22;;;;;;;3.30;1.65;;;;;;;16.52;25.07;101420.44;5029720;28;20539;-54
2022/04/11 10:56:02;;;;;;;2.90;1.83;;;;;;;16.70;24.57;101434.19;5029533;28;20792;-53
2022/04/11 10:58:49;;;;;;;3.22;1.75;;;;;;;16.41;24.21;101425.25;5029699;28;20780;-54
2022/04/11 11:01:56;;;;;;;4.30;2.38;;;;;;;16.59;24.19;101422.13;5029640;28;20421;-57
2022/04/11 11:04:30;;;;;;;2.35;1.80;;;;;;;16.68;24.00;101422.84;5029267;28;20420;-54
2022/04/11 11:07:29;;;;;;;2.95;1.95;;;;;;;16.67;23.79;101415.00;5029175;28;20418;-54
2022/04/11 11:10:01;;;;;;;3.03;1.90;;;;;;;16.82;23.42;101419.25;5029352;28;20563;-54
2022/04/11 11:12:28;;;;;;;3.90;2.22;;;;;;;16.71;23.29;101426.97;5029250;28;20525;-53
2022/04/11 11:14:56;;;;;;;3.88;2.20;;;;;;;16.76;23.17;101417.34;5028984;28;20471;-54
2022/04/11 11:17:55;;;;;;;5.10;3.17;;;;;;;16.74;22.94;101416.69;5029131;28;20420;-54
2022/04/11 11:20:24;;;;;;;3.63;2.15;;;;;;;16.86;22.21;101421.56;5028803;28;20415;-55
2022/04/11 11:23:17;;;;;;;3.60;2.00;;;;;;;16.94;22.55;101427.63;5027857;28;20792;-54
2022/04/11 11:25:44;;;;;;;2.53;1.50;;;;;;;16.86;22.61;101432.28;5029151;28;20414;-54
2022/04/11 11:28:13;;;;;;;3.00;1.80;;;;;;;16.80;22.53;101433.88;5029388;28;20472;-54
2022/04/11 11:30:40;;;;;;;3.22;1.65;;;;;;;16.48;22.55;101432.53;5029038;28;20935;-54
2022/04/11 11:33:11;;;;;;;3.47;1.60;;;;;;;16.55;22.47;101422.72;5030991;28;20469;-54
2022/04/11 11:35:48;;;;;;;3.80;1.60;;;;;;;16.28;22.54;101429.66;5033453;28;20480;-55
2022/04/11 11:38:15;;;;;;;4.32;1.70;;;;;;;16.60;22.45;101431.84;5032851;28;20784;-56
2022/04/11 11:40:52;;;;;;;2.75;1.70;;;;;;;16.84;22.73;101427.13;5032904;28;20425;-55
2022/04/11 11:43:20;;;;;;;3.90;1.70;;;;;;;16.69;22.75;101427.19;5033247;28;20464;-54